sensor_id;sensor_type;location;lat;lon;timestamp;temperature;humidity
16823;DHT22;8528;49.976;11.858;2022-12-29T00:01:11;4.60;99.90
16823;DHT22;8528;49.976;11.858;2022-12-29T00:03:38;4.70;99.90
16823;DHT22;8528;49.976;11.858;2022-12-29T00:06:05;4.80;99.90
16823;DHT22;8528;49.976;11.858;2022-12-29T00:08:32;4.80;99.90
16823;DHT22;8528;49.976;11.858;2022-12-29T00:11:14;4.80;99.90
16823;DHT22;8528;49.976;11.858;2022-12-29T00:13:41;4.70;99.90
16823;DHT22;8528;49.976;11.858;2022-12-29T00:16:27;4.70;99.90
16823;DHT22;8528;49.976;11.858;2022-12-29T00:18:55;4.60;99.90
16823;DHT22;8528;49.976;11.858;2022-12-29T00:21:23;4.60;99.90
16823;DHT22;8528;49.976;11.858;2022-12-29T00:24:17;4.70;99.90
16823;DHT22;8528;49.976;11.858;2022-12-29T00:29:49;4.60;99.90
16823;DHT22;8528;49.976;11.858;2022-12-29T00:32:47;4.60;99.90
16823;DHT22;8528;49.976;11.858;2022-12-29T00:35:45;4.60;99.90
16823;DHT22;8528;49.976;11.858;2022-12-29T00:38:13;4.60;99.90
16823;DHT22;8528;49.976;11.858;2022-12-29T00:40:59;4.60;99.90
16823;DHT22;8528;49.976;11.858;2022-12-29T00:43:44;4.60;99.90
16823;DHT22;8528;49.976;11.858;2022-12-29T00:46:34;4.60;99.90
16823;DHT22;8528;49.976;11.858;2022-12-29T00:49:02;4.60;99.90
16823;DHT22;8528;49.976;11.858;2022-12-29T00:51:48;4.60;99.90
16823;DHT22;8528;49.976;11.858;2022-12-29T00:54:15;4.60;99.90
16823;DHT22;8528;49.976;11.858;2022-12-29T00:56:46;4.60;99.90
16823;DHT22;8528;49.976;11.858;2022-12-29T00:59:14;4.60;99.90
16823;DHT22;8528;49.976;11.858;2022-12-29T01:01:41;4.50;99.90
16823;DHT22;8528;49.976;11.858;2022-12-29T01:04:08;4.50;99.90
16823;DHT22;8528;49.976;11.858;2022-12-29T01:06:37;4.50;99.90
16823;DHT22;8528;49.976;11.858;2022-12-29T01:09:04;4.50;99.90
16823;DHT22;8528;49.976;11.858;2022-12-29T01:11:49;4.60;99.90
16823;DHT22;8528;49.976;11.858;2022-12-29T01:14:17;4.60;99.90
16823;DHT22;8528;49.976;11.858;2022-12-29T01:16:45;4.60;99.90
16823;DHT22;8528;49.976;11.858;2022-12-29T01:19:13;4.60;99.90
16823;DHT22;8528;49.976;11.858;2022-12-29T01:21:41;4.70;99.90
16823;DHT22;8528;49.976;11.858;2022-12-29T01:24:08;4.80;99.90
16823;DHT22;8528;49.976;11.858;2022-12-29T01:26:35;4.80;99.90
16823;DHT22;8528;49.976;11.858;2022-12-29T01:29:02;4.80;99.90
16823;DHT22;8528;49.976;11.858;2022-12-29T01:31:29;4.90;99.90
16823;DHT22;8528;49.976;11.858;2022-12-29T01:33:56;4.90;99.90
16823;DHT22;8528;49.976;11.858;2022-12-29T01:36:24;4.90;99.90
16823;DHT22;8528;49.976;11.858;2022-12-29T01:38:52;4.90;99.90
16823;DHT22;8528;49.976;11.858;2022-12-29T01:41:18;4.90;99.90
16823;DHT22;8528;49.976;11.858;2022-12-29T01:43:48;4.90;99.90
16823;DHT22;8528;49.976;11.858;2022-12-29T01:49:04;4.90;99.90
16823;DHT22;8528;49.976;11.858;2022-12-29T01:54:40;5.00;99.90
16823;DHT22;8528;49.976;11.858;2022-12-29T01:57:11;5.00;99.90
16823;DHT22;8528;49.976;11.858;2022-12-29T01:59:54;5.00;99.90
16823;DHT22;8528;49.976;11.858;2022-12-29T02:02:23;5.00;99.90
16823;DHT22;8528;49.976;11.858;2022-12-29T02:04:52;4.90;99.90
16823;DHT22;8528;49.976;11.858;2022-12-29T02:07:21;5.00;99.90
16823;DHT22;8528;49.976;11.858;2022-12-29T02:09:49;5.10;99.90
16823;DHT22;8528;49.976;11.858;2022-12-29T02:12:18;5.00;99.90
16823;DHT22;8528;49.976;11.858;2022-12-29T02:14:47;5.00;99.90
16823;DHT22;8528;49.976;11.858;2022-12-29T02:20:45;5.10;99.90
16823;DHT22;8528;49.976;11.858;2022-12-29T02:28:53;5.00;99.90
16823;DHT22;8528;49.976;11.858;2022-12-29T02:31:44;5.00;99.90
16823;DHT22;8528;49.976;11.858;2022-12-29T02:37:19;4.90;99.90
16823;DHT22;8528;49.976;11.858;2022-12-29T02:43:02;5.00;99.90
16823;DHT22;8528;49.976;11.858;2022-12-29T02:48:18;5.10;99.90
16823;DHT22;8528;49.976;11.858;2022-12-29T02:51:01;5.10;99.90
16823;DHT22;8528;49.976;11.858;2022-12-29T02:53:32;5.10;99.90
16823;DHT22;8528;49.976;11.858;2022-12-29T02:56:18;5.10;99.90
16823;DHT22;8528;49.976;11.858;2022-12-29T02:58:45;5.20;99.90
16823;DHT22;8528;49.976;11.858;2022-12-29T03:04:16;5.10;99.90
16823;DHT22;8528;49.976;11.858;2022-12-29T03:06:54;5.10;99.90
16823;DHT22;8528;49.976;11.858;2022-12-29T03:09:43;5.20;99.90
16823;DHT22;8528;49.976;11.858;2022-12-29T03:12:37;5.30;99.90
16823;DHT22;8528;49.976;11.858;2022-12-29T03:15:34;5.20;99.90
16823;DHT22;8528;49.976;11.858;2022-12-29T03:21:11;5.20;99.90
16823;DHT22;8528;49.976;11.858;2022-12-29T03:23:39;5.20;99.90
16823;DHT22;8528;49.976;11.858;2022-12-29T03:26:10;5.20;99.90
16823;DHT22;8528;49.976;11.858;2022-12-29T03:28:44;5.20;99.90
16823;DHT22;8528;49.976;11.858;2022-12-29T03:31:13;5.20;99.90
16823;DHT22;8528;49.976;11.858;2022-12-29T03:33:41;5.20;99.90
16823;DHT22;8528;49.976;11.858;2022-12-29T03:36:12;5.20;99.90
16823;DHT22;8528;49.976;11.858;2022-12-29T03:38:55;5.20;99.90
16823;DHT22;8528;49.976;11.858;2022-12-29T03:41:27;5.20;99.90
16823;DHT22;8528;49.976;11.858;2022-12-29T03:43:55;5.20;99.90
16823;DHT22;8528;49.976;11.858;2022-12-29T03:46:23;5.20;99.90
16823;DHT22;8528;49.976;11.858;2022-12-29T03:48:50;5.20;99.90
16823;DHT22;8528;49.976;11.858;2022-12-29T03:51:17;5.30;99.90
16823;DHT22;8528;49.976;11.858;2022-12-29T03:53:44;5.20;99.90
16823;DHT22;8528;49.976;11.858;2022-12-29T03:56:11;5.20;99.90
16823;DHT22;8528;49.976;11.858;2022-12-29T03:58:38;5.20;99.90
16823;DHT22;8528;49.976;11.858;2022-12-29T04:01:04;5.20;99.90
16823;DHT22;8528;49.976;11.858;2022-12-29T04:03:31;5.20;99.90
16823;DHT22;8528;49.976;11.858;2022-12-29T04:05:58;5.20;99.90
16823;DHT22;8528;49.976;11.858;2022-12-29T04:08:25;5.20;99.90
16823;DHT22;8528;49.976;11.858;2022-12-29T04:10:52;5.20;99.90
16823;DHT22;8528;49.976;11.858;2022-12-29T04:13:19;5.20;99.90
16823;DHT22;8528;49.976;11.858;2022-12-29T04:15:46;5.20;99.90
16823;DHT22;8528;49.976;11.858;2022-12-29T04:18:14;5.20;99.90
16823;DHT22;8528;49.976;11.858;2022-12-29T04:20:44;5.30;99.90
16823;DHT22;8528;49.976;11.858;2022-12-29T04:23:31;5.30;99.90
16823;DHT22;8528;49.976;11.858;2022-12-29T04:25:59;5.40;99.90
16823;DHT22;8528;49.976;11.858;2022-12-29T04:28:26;5.30;99.90
16823;DHT22;8528;49.976;11.858;2022-12-29T04:30:53;5.30;99.90
16823;DHT22;8528;49.976;11.858;2022-12-29T04:33:21;5.30;99.90
16823;DHT22;8528;49.976;11.858;2022-12-29T04:35:48;5.30;99.90
16823;DHT22;8528;49.976;11.858;2022-12-29T04:38:15;5.30;99.90
16823;DHT22;8528;49.976;11.858;2022-12-29T04:40:44;5.30;99.90
16823;DHT22;8528;49.976;11.858;2022-12-29T04:43:12;5.30;99.90
16823;DHT22;8528;49.976;11.858;2022-12-29T04:45:43;5.30;99.90
16823;DHT22;8528;49.976;11.858;2022-12-29T04:48:11;5.30;99.90
16823;DHT22;8528;49.976;11.858;2022-12-29T04:50:38;5.30;99.90
16823;DHT22;8528;49.976;11.858;2022-12-29T04:53:05;5.30;99.90
16823;DHT22;8528;49.976;11.858;2022-12-29T04:55:32;5.30;99.90
16823;DHT22;8528;49.976;11.858;2022-12-29T04:58:00;5.40;99.90
16823;DHT22;8528;49.976;11.858;2022-12-29T05:00:26;5.30;99.90
16823;DHT22;8528;49.976;11.858;2022-12-29T05:02:53;5.40;99.90
16823;DHT22;8528;49.976;11.858;2022-12-29T05:05:21;5.40;99.90
16823;DHT22;8528;49.976;11.858;2022-12-29T05:07:47;5.40;99.90
16823;DHT22;8528;49.976;11.858;2022-12-29T05:10:15;5.40;99.90
16823;DHT22;8528;49.976;11.858;2022-12-29T05:12:41;5.40;99.90
16823;DHT22;8528;49.976;11.858;2022-12-29T05:15:10;5.50;99.90
16823;DHT22;8528;49.976;11.858;2022-12-29T05:17:37;5.50;99.90
16823;DHT22;8528;49.976;11.858;2022-12-29T05:20:05;5.50;99.90
16823;DHT22;8528;49.976;11.858;2022-12-29T05:22:33;5.50;99.90
16823;DHT22;8528;49.976;11.858;2022-12-29T05:24:59;5.50;99.90
16823;DHT22;8528;49.976;11.858;2022-12-29T05:27:27;5.50;99.90
16823;DHT22;8528;49.976;11.858;2022-12-29T05:29:53;5.50;99.90
16823;DHT22;8528;49.976;11.858;2022-12-29T05:32:20;5.60;99.90
16823;DHT22;8528;49.976;11.858;2022-12-29T05:34:48;5.70;99.90
16823;DHT22;8528;49.976;11.858;2022-12-29T05:37:14;5.70;99.90
16823;DHT22;8528;49.976;11.858;2022-12-29T05:39:43;5.70;99.90
16823;DHT22;8528;49.976;11.858;2022-12-29T05:42:10;5.80;99.90
16823;DHT22;8528;49.976;11.858;2022-12-29T05:44:38;5.90;99.90
16823;DHT22;8528;49.976;11.858;2022-12-29T05:47:05;5.90;99.90
16823;DHT22;8528;49.976;11.858;2022-12-29T05:49:31;5.90;99.90
16823;DHT22;8528;49.976;11.858;2022-12-29T05:51:59;5.90;99.90
16823;DHT22;8528;49.976;11.858;2022-12-29T05:54:26;5.90;99.90
16823;DHT22;8528;49.976;11.858;2022-12-29T05:56:53;6.00;99.90
16823;DHT22;8528;49.976;11.858;2022-12-29T05:59:20;6.00;99.90
16823;DHT22;8528;49.976;11.858;2022-12-29T06:01:46;6.00;99.90
16823;DHT22;8528;49.976;11.858;2022-12-29T06:04:14;6.00;99.90
16823;DHT22;8528;49.976;11.858;2022-12-29T06:06:41;6.00;99.90
16823;DHT22;8528;49.976;11.858;2022-12-29T06:09:09;6.00;99.90
16823;DHT22;8528;49.976;11.858;2022-12-29T06:11:37;6.00;99.90
16823;DHT22;8528;49.976;11.858;2022-12-29T06:14:04;5.90;99.90
16823;DHT22;8528;49.976;11.858;2022-12-29T06:16:31;5.80;99.90
16823;DHT22;8528;49.976;11.858;2022-12-29T06:18:58;5.70;99.90
16823;DHT22;8528;49.976;11.858;2022-12-29T06:21:25;5.60;99.90
16823;DHT22;8528;49.976;11.858;2022-12-29T06:23:52;5.50;99.90
16823;DHT22;8528;49.976;11.858;2022-12-29T06:26:19;5.40;99.90
16823;DHT22;8528;49.976;11.858;2022-12-29T06:28:46;5.40;99.90
16823;DHT22;8528;49.976;11.858;2022-12-29T06:31:13;5.40;99.90
16823;DHT22;8528;49.976;11.858;2022-12-29T06:33:40;5.30;99.90
16823;DHT22;8528;49.976;11.858;2022-12-29T06:39:15;5.30;99.90
16823;DHT22;8528;49.976;11.858;2022-12-29T06:41:42;5.40;99.90
16823;DHT22;8528;49.976;11.858;2022-12-29T06:44:09;5.40;99.90
16823;DHT22;8528;49.976;11.858;2022-12-29T06:46:36;5.40;99.90
16823;DHT22;8528;49.976;11.858;2022-12-29T06:49:03;5.40;99.90
16823;DHT22;8528;49.976;11.858;2022-12-29T06:51:30;5.40;99.90
16823;DHT22;8528;49.976;11.858;2022-12-29T06:53:57;5.40;99.90
16823;DHT22;8528;49.976;11.858;2022-12-29T06:56:24;5.40;99.90
16823;DHT22;8528;49.976;11.858;2022-12-29T06:58:51;5.40;99.90
16823;DHT22;8528;49.976;11.858;2022-12-29T07:01:17;5.40;99.90
16823;DHT22;8528;49.976;11.858;2022-12-29T07:03:44;5.40;99.90
16823;DHT22;8528;49.976;11.858;2022-12-29T07:06:11;5.40;99.90
16823;DHT22;8528;49.976;11.858;2022-12-29T07:08:38;5.40;99.90
16823;DHT22;8528;49.976;11.858;2022-12-29T07:11:05;5.50;99.90
16823;DHT22;8528;49.976;11.858;2022-12-29T07:13:32;5.50;99.90
16823;DHT22;8528;49.976;11.858;2022-12-29T07:16:04;5.50;99.90
16823;DHT22;8528;49.976;11.858;2022-12-29T07:18:31;5.60;99.90
16823;DHT22;8528;49.976;11.858;2022-12-29T07:20:58;5.70;99.90
16823;DHT22;8528;49.976;11.858;2022-12-29T07:23:24;5.70;99.90
16823;DHT22;8528;49.976;11.858;2022-12-29T07:26:01;5.80;99.90
16823;DHT22;8528;49.976;11.858;2022-12-29T07:28:28;5.80;99.90
16823;DHT22;8528;49.976;11.858;2022-12-29T07:30:56;5.90;99.90
16823;DHT22;8528;49.976;11.858;2022-12-29T07:33:22;6.00;99.90
16823;DHT22;8528;49.976;11.858;2022-12-29T07:35:49;6.10;99.90
16823;DHT22;8528;49.976;11.858;2022-12-29T07:38:17;6.20;99.90
16823;DHT22;8528;49.976;11.858;2022-12-29T07:40:43;6.20;99.90
16823;DHT22;8528;49.976;11.858;2022-12-29T07:43:10;6.30;99.90
16823;DHT22;8528;49.976;11.858;2022-12-29T07:45:37;6.30;99.90
16823;DHT22;8528;49.976;11.858;2022-12-29T07:48:05;6.30;99.90
16823;DHT22;8528;49.976;11.858;2022-12-29T07:50:35;6.40;99.90
16823;DHT22;8528;49.976;11.858;2022-12-29T07:53:03;6.40;99.90
16823;DHT22;8528;49.976;11.858;2022-12-29T07:56:05;6.50;99.90
16823;DHT22;8528;49.976;11.858;2022-12-29T07:58:37;6.40;99.90
16823;DHT22;8528;49.976;11.858;2022-12-29T08:01:09;6.40;99.90
16823;DHT22;8528;49.976;11.858;2022-12-29T08:03:42;6.50;99.90
16823;DHT22;8528;49.976;11.858;2022-12-29T08:06:10;6.50;99.90
16823;DHT22;8528;49.976;11.858;2022-12-29T08:12:23;6.60;99.90
16823;DHT22;8528;49.976;11.858;2022-12-29T08:14:50;6.60;99.90
16823;DHT22;8528;49.976;11.858;2022-12-29T08:20:19;6.60;99.90
16823;DHT22;8528;49.976;11.858;2022-12-29T08:22:58;6.70;99.90
16823;DHT22;8528;49.976;11.858;2022-12-29T08:25:33;6.80;99.90
16823;DHT22;8528;49.976;11.858;2022-12-29T08:28:01;6.80;99.90
16823;DHT22;8528;49.976;11.858;2022-12-29T08:33:49;7.00;99.90
16823;DHT22;8528;49.976;11.858;2022-12-29T08:36:16;6.90;99.90
16823;DHT22;8528;49.976;11.858;2022-12-29T08:38:43;7.00;99.90
16823;DHT22;8528;49.976;11.858;2022-12-29T08:41:09;7.00;99.90
16823;DHT22;8528;49.976;11.858;2022-12-29T08:43:36;7.10;99.90
16823;DHT22;8528;49.976;11.858;2022-12-29T08:46:03;7.20;99.90
16823;DHT22;8528;49.976;11.858;2022-12-29T08:48:31;7.30;99.90
16823;DHT22;8528;49.976;11.858;2022-12-29T08:50:57;7.40;99.90
16823;DHT22;8528;49.976;11.858;2022-12-29T08:53:24;7.50;99.90
16823;DHT22;8528;49.976;11.858;2022-12-29T08:55:57;7.60;99.90
16823;DHT22;8528;49.976;11.858;2022-12-29T08:58:31;7.70;99.90
16823;DHT22;8528;49.976;11.858;2022-12-29T09:00:59;7.90;99.90
16823;DHT22;8528;49.976;11.858;2022-12-29T09:03:26;7.90;99.90
16823;DHT22;8528;49.976;11.858;2022-12-29T09:06:14;8.00;99.90
16823;DHT22;8528;49.976;11.858;2022-12-29T09:08:42;8.00;99.90
16823;DHT22;8528;49.976;11.858;2022-12-29T09:11:24;8.00;99.90
16823;DHT22;8528;49.976;11.858;2022-12-29T09:13:52;8.10;99.90
16823;DHT22;8528;49.976;11.858;2022-12-29T09:16:22;8.00;99.90
16823;DHT22;8528;49.976;11.858;2022-12-29T09:18:49;7.90;99.90
16823;DHT22;8528;49.976;11.858;2022-12-29T09:21:16;7.70;99.90
16823;DHT22;8528;49.976;11.858;2022-12-29T09:23:43;7.60;99.90
16823;DHT22;8528;49.976;11.858;2022-12-29T09:26:10;7.40;99.90
16823;DHT22;8528;49.976;11.858;2022-12-29T09:28:37;7.30;99.90
16823;DHT22;8528;49.976;11.858;2022-12-29T09:31:04;7.10;99.90
16823;DHT22;8528;49.976;11.858;2022-12-29T09:33:31;7.00;99.90
16823;DHT22;8528;49.976;11.858;2022-12-29T09:36:02;6.90;99.90
16823;DHT22;8528;49.976;11.858;2022-12-29T09:38:30;7.00;99.90
16823;DHT22;8528;49.976;11.858;2022-12-29T09:41:34;7.00;99.90
16823;DHT22;8528;49.976;11.858;2022-12-29T09:46:56;7.10;99.90
16823;DHT22;8528;49.976;11.858;2022-12-29T09:49:54;7.20;99.90
16823;DHT22;8528;49.976;11.858;2022-12-29T09:52:25;7.30;99.90
16823;DHT22;8528;49.976;11.858;2022-12-29T09:55:13;7.30;99.90
16823;DHT22;8528;49.976;11.858;2022-12-29T09:57:54;7.20;99.90
16823;DHT22;8528;49.976;11.858;2022-12-29T10:00:34;7.10;99.90
16823;DHT22;8528;49.976;11.858;2022-12-29T10:03:17;7.10;99.90
16823;DHT22;8528;49.976;11.858;2022-12-29T10:11:02;7.40;99.90
16823;DHT22;8528;49.976;11.858;2022-12-29T10:13:35;7.50;99.90
16823;DHT22;8528;49.976;11.858;2022-12-29T10:16:14;7.60;99.90
16823;DHT22;8528;49.976;11.858;2022-12-29T10:21:36;7.90;99.90
16823;DHT22;8528;49.976;11.858;2022-12-29T10:24:11;8.10;99.90
16823;DHT22;8528;49.976;11.858;2022-12-29T10:26:42;8.30;99.90
16823;DHT22;8528;49.976;11.858;2022-12-29T10:29:19;8.60;99.90
16823;DHT22;8528;49.976;11.858;2022-12-29T10:32:04;8.70;99.90
16823;DHT22;8528;49.976;11.858;2022-12-29T10:34:47;8.90;99.90
16823;DHT22;8528;49.976;11.858;2022-12-29T10:37:46;9.00;99.90
16823;DHT22;8528;49.976;11.858;2022-12-29T10:41:00;9.00;99.90
16823;DHT22;8528;49.976;11.858;2022-12-29T10:43:34;9.10;99.90
16823;DHT22;8528;49.976;11.858;2022-12-29T10:46:10;9.20;99.90
16823;DHT22;8528;49.976;11.858;2022-12-29T10:48:38;9.40;99.90
16823;DHT22;8528;49.976;11.858;2022-12-29T10:51:08;9.50;99.90
16823;DHT22;8528;49.976;11.858;2022-12-29T10:56:26;9.80;99.90
16823;DHT22;8528;49.976;11.858;2022-12-29T10:59:01;9.80;99.90
16823;DHT22;8528;49.976;11.858;2022-12-29T11:01:38;9.60;99.90
16823;DHT22;8528;49.976;11.858;2022-12-29T11:06:51;9.40;99.90
16823;DHT22;8528;49.976;11.858;2022-12-29T11:09:28;9.50;99.90
16823;DHT22;8528;49.976;11.858;2022-12-29T11:12:55;9.60;99.90
16823;DHT22;8528;49.976;11.858;2022-12-29T11:15:22;9.70;99.90
16823;DHT22;8528;49.976;11.858;2022-12-29T11:17:57;9.70;99.90
16823;DHT22;8528;49.976;11.858;2022-12-29T11:20:28;9.70;99.90
16823;DHT22;8528;49.976;11.858;2022-12-29T11:22:56;9.80;99.90
16823;DHT22;8528;49.976;11.858;2022-12-29T11:25:24;9.90;99.90
16823;DHT22;8528;49.976;11.858;2022-12-29T11:28:04;10.00;99.90
16823;DHT22;8528;49.976;11.858;2022-12-29T11:30:40;10.00;99.90
16823;DHT22;8528;49.976;11.858;2022-12-29T11:33:09;10.00;99.90
16823;DHT22;8528;49.976;11.858;2022-12-29T11:35:42;10.10;99.90
16823;DHT22;8528;49.976;11.858;2022-12-29T11:38:21;10.10;99.90
16823;DHT22;8528;49.976;11.858;2022-12-29T11:40:50;10.20;99.90
16823;DHT22;8528;49.976;11.858;2022-12-29T11:43:32;10.20;99.90
16823;DHT22;8528;49.976;11.858;2022-12-29T11:46:03;10.20;99.90
16823;DHT22;8528;49.976;11.858;2022-12-29T11:48:39;10.20;99.90
16823;DHT22;8528;49.976;11.858;2022-12-29T11:51:08;10.20;99.90
16823;DHT22;8528;49.976;11.858;2022-12-29T11:53:47;10.20;99.90
16823;DHT22;8528;49.976;11.858;2022-12-29T12:02:11;10.20;99.90
16823;DHT22;8528;49.976;11.858;2022-12-29T12:04:43;10.30;99.90
16823;DHT22;8528;49.976;11.858;2022-12-29T12:07:17;10.30;99.90
16823;DHT22;8528;49.976;11.858;2022-12-29T12:10:00;10.20;99.90
16823;DHT22;8528;49.976;11.858;2022-12-29T12:12:58;10.10;99.90
16823;DHT22;8528;49.976;11.858;2022-12-29T12:19:24;9.90;99.90
16823;DHT22;8528;49.976;11.858;2022-12-29T12:22:08;9.90;99.90
16823;DHT22;8528;49.976;11.858;2022-12-29T12:27:48;9.70;99.90
16823;DHT22;8528;49.976;11.858;2022-12-29T12:30:57;9.50;99.90
16823;DHT22;8528;49.976;11.858;2022-12-29T13:10:17;9.60;99.90
16823;DHT22;8528;49.976;11.858;2022-12-29T13:31:54;9.50;99.90
16823;DHT22;8528;49.976;11.858;2022-12-29T13:39:39;9.50;99.90
16823;DHT22;8528;49.976;11.858;2022-12-29T13:50:54;9.50;99.90
16823;DHT22;8528;49.976;11.858;2022-12-29T13:58:32;9.40;99.90
16823;DHT22;8528;49.976;11.858;2022-12-29T14:13:18;9.30;99.90
16823;DHT22;8528;49.976;11.858;2022-12-29T14:25:00;9.30;99.90
16823;DHT22;8528;49.976;11.858;2022-12-29T14:28:43;9.20;99.90
16823;DHT22;8528;49.976;11.858;2022-12-29T14:36:57;9.20;99.90
16823;DHT22;8528;49.976;11.858;2022-12-29T14:43:23;9.20;99.90
16823;DHT22;8528;49.976;11.858;2022-12-29T14:58:31;9.10;99.90
16823;DHT22;8528;49.976;11.858;2022-12-29T15:02:41;8.90;99.90
16823;DHT22;8528;49.976;11.858;2022-12-29T15:13:05;8.70;99.90
16823;DHT22;8528;49.976;11.858;2022-12-29T15:15:37;8.80;99.90
16823;DHT22;8528;49.976;11.858;2022-12-29T15:18:26;8.80;99.90
16823;DHT22;8528;49.976;11.858;2022-12-29T15:20:57;8.80;99.90
16823;DHT22;8528;49.976;11.858;2022-12-29T15:23:24;8.80;99.90
16823;DHT22;8528;49.976;11.858;2022-12-29T15:25:57;8.80;99.90
16823;DHT22;8528;49.976;11.858;2022-12-29T15:28:27;8.80;99.90
16823;DHT22;8528;49.976;11.858;2022-12-29T15:31:10;8.90;99.90
16823;DHT22;8528;49.976;11.858;2022-12-29T15:33:40;8.80;99.90
16823;DHT22;8528;49.976;11.858;2022-12-29T15:36:19;8.80;99.90
16823;DHT22;8528;49.976;11.858;2022-12-29T15:38:47;8.80;99.90
16823;DHT22;8528;49.976;11.858;2022-12-29T15:41:35;8.80;99.90
16823;DHT22;8528;49.976;11.858;2022-12-29T15:44:39;8.80;99.90
16823;DHT22;8528;49.976;11.858;2022-12-29T15:49:53;8.70;99.90
16823;DHT22;8528;49.976;11.858;2022-12-29T15:52:23;8.60;99.90
16823;DHT22;8528;49.976;11.858;2022-12-29T15:54:52;8.60;99.90
16823;DHT22;8528;49.976;11.858;2022-12-29T15:57:31;8.60;99.90
16823;DHT22;8528;49.976;11.858;2022-12-29T16:00:04;8.50;99.90
16823;DHT22;8528;49.976;11.858;2022-12-29T16:02:31;8.40;99.90
16823;DHT22;8528;49.976;11.858;2022-12-29T16:04:58;8.40;99.90
16823;DHT22;8528;49.976;11.858;2022-12-29T16:07:53;8.40;99.90
16823;DHT22;8528;49.976;11.858;2022-12-29T16:10:35;8.30;99.90
16823;DHT22;8528;49.976;11.858;2022-12-29T16:13:06;8.30;99.90
16823;DHT22;8528;49.976;11.858;2022-12-29T16:15:37;8.20;99.90
16823;DHT22;8528;49.976;11.858;2022-12-29T16:18:23;8.20;99.90
16823;DHT22;8528;49.976;11.858;2022-12-29T16:20:52;8.20;99.90
16823;DHT22;8528;49.976;11.858;2022-12-29T16:23:22;8.20;99.90
16823;DHT22;8528;49.976;11.858;2022-12-29T16:25:50;8.20;99.90
16823;DHT22;8528;49.976;11.858;2022-12-29T16:28:22;8.20;99.90
16823;DHT22;8528;49.976;11.858;2022-12-29T16:31:04;8.20;99.90
16823;DHT22;8528;49.976;11.858;2022-12-29T16:33:48;8.30;99.90
16823;DHT22;8528;49.976;11.858;2022-12-29T16:36:39;8.30;99.90
16823;DHT22;8528;49.976;11.858;2022-12-29T16:39:31;8.40;99.90
16823;DHT22;8528;49.976;11.858;2022-12-29T16:41:59;8.30;99.90
16823;DHT22;8528;49.976;11.858;2022-12-29T16:44:29;8.30;99.90
16823;DHT22;8528;49.976;11.858;2022-12-29T16:49:27;8.30;99.90
16823;DHT22;8528;49.976;11.858;2022-12-29T16:51:55;8.20;99.90
16823;DHT22;8528;49.976;11.858;2022-12-29T16:54:33;8.20;99.90
16823;DHT22;8528;49.976;11.858;2022-12-29T16:57:01;8.30;99.90
16823;DHT22;8528;49.976;11.858;2022-12-29T16:59:34;8.30;99.90
16823;DHT22;8528;49.976;11.858;2022-12-29T17:02:07;8.40;99.90
16823;DHT22;8528;49.976;11.858;2022-12-29T17:04:34;8.30;99.90
16823;DHT22;8528;49.976;11.858;2022-12-29T17:07:01;8.20;99.90
16823;DHT22;8528;49.976;11.858;2022-12-29T17:09:28;8.10;99.90
16823;DHT22;8528;49.976;11.858;2022-12-29T17:12:29;8.00;99.90
16823;DHT22;8528;49.976;11.858;2022-12-29T17:15:01;7.90;99.90
16823;DHT22;8528;49.976;11.858;2022-12-29T17:17:53;7.90;99.90
16823;DHT22;8528;49.976;11.858;2022-12-29T17:20:22;7.80;99.90
16823;DHT22;8528;49.976;11.858;2022-12-29T17:22:51;7.70;99.90
16823;DHT22;8528;49.976;11.858;2022-12-29T17:25:25;7.70;99.90
16823;DHT22;8528;49.976;11.858;2022-12-29T17:28:06;7.70;99.90
16823;DHT22;8528;49.976;11.858;2022-12-29T17:30:36;7.70;99.90
16823;DHT22;8528;49.976;11.858;2022-12-29T17:33:06;7.60;99.90
16823;DHT22;8528;49.976;11.858;2022-12-29T17:35:34;7.60;99.90
16823;DHT22;8528;49.976;11.858;2022-12-29T17:38:01;7.60;99.90
16823;DHT22;8528;49.976;11.858;2022-12-29T17:40:31;7.60;99.90
16823;DHT22;8528;49.976;11.858;2022-12-29T17:42:59;7.60;99.90
16823;DHT22;8528;49.976;11.858;2022-12-29T17:45:30;7.60;99.90
16823;DHT22;8528;49.976;11.858;2022-12-29T17:47:58;7.50;99.90
16823;DHT22;8528;49.976;11.858;2022-12-29T17:50:29;7.20;99.90
16823;DHT22;8528;49.976;11.858;2022-12-29T17:53:41;6.80;99.90
16823;DHT22;8528;49.976;11.858;2022-12-29T17:56:01;6.60;99.90
16823;DHT22;8528;49.976;11.858;2022-12-29T17:58:28;6.50;99.90
16823;DHT22;8528;49.976;11.858;2022-12-29T18:00:58;6.40;99.90
16823;DHT22;8528;49.976;11.858;2022-12-29T18:03:52;6.40;99.90
16823;DHT22;8528;49.976;11.858;2022-12-29T18:06:19;6.40;99.90
16823;DHT22;8528;49.976;11.858;2022-12-29T18:08:46;6.40;99.90
16823;DHT22;8528;49.976;11.858;2022-12-29T18:11:24;6.40;99.90
16823;DHT22;8528;49.976;11.858;2022-12-29T18:13:54;6.30;99.90
16823;DHT22;8528;49.976;11.858;2022-12-29T18:16:21;6.30;99.90
16823;DHT22;8528;49.976;11.858;2022-12-29T18:22:01;6.30;99.90
16823;DHT22;8528;49.976;11.858;2022-12-29T18:24:28;6.30;99.90
16823;DHT22;8528;49.976;11.858;2022-12-29T18:26:55;6.40;99.90
16823;DHT22;8528;49.976;11.858;2022-12-29T18:29:22;6.40;99.90
16823;DHT22;8528;49.976;11.858;2022-12-29T18:31:49;6.40;99.90
16823;DHT22;8528;49.976;11.858;2022-12-29T18:34:18;6.40;99.90
16823;DHT22;8528;49.976;11.858;2022-12-29T18:36:57;6.40;99.90
16823;DHT22;8528;49.976;11.858;2022-12-29T18:39:25;6.40;99.90
16823;DHT22;8528;49.976;11.858;2022-12-29T18:41:55;6.40;99.90
16823;DHT22;8528;49.976;11.858;2022-12-29T18:44:22;6.30;99.90
16823;DHT22;8528;49.976;11.858;2022-12-29T18:46:50;6.30;99.90
16823;DHT22;8528;49.976;11.858;2022-12-29T18:49:17;6.30;99.90
16823;DHT22;8528;49.976;11.858;2022-12-29T18:51:44;6.30;99.90
16823;DHT22;8528;49.976;11.858;2022-12-29T18:54:31;6.30;99.90
16823;DHT22;8528;49.976;11.858;2022-12-29T18:56:58;6.40;99.90
16823;DHT22;8528;49.976;11.858;2022-12-29T18:59:25;6.40;99.90
16823;DHT22;8528;49.976;11.858;2022-12-29T19:01:52;6.40;99.90
16823;DHT22;8528;49.976;11.858;2022-12-29T19:04:19;6.40;99.90
16823;DHT22;8528;49.976;11.858;2022-12-29T19:06:47;6.40;99.90
16823;DHT22;8528;49.976;11.858;2022-12-29T19:09:14;6.40;99.90
16823;DHT22;8528;49.976;11.858;2022-12-29T19:11:41;6.40;99.90
16823;DHT22;8528;49.976;11.858;2022-12-29T19:14:14;6.40;99.90
16823;DHT22;8528;49.976;11.858;2022-12-29T19:16:43;6.40;99.90
16823;DHT22;8528;49.976;11.858;2022-12-29T19:19:14;6.40;99.90
16823;DHT22;8528;49.976;11.858;2022-12-29T19:21:41;6.40;99.90
16823;DHT22;8528;49.976;11.858;2022-12-29T19:24:08;6.30;99.90
16823;DHT22;8528;49.976;11.858;2022-12-29T19:26:37;6.30;99.90
16823;DHT22;8528;49.976;11.858;2022-12-29T19:29:06;6.30;99.90
16823;DHT22;8528;49.976;11.858;2022-12-29T19:31:34;6.30;99.90
16823;DHT22;8528;49.976;11.858;2022-12-29T19:34:02;6.30;99.90
16823;DHT22;8528;49.976;11.858;2022-12-29T19:36:29;6.30;99.90
16823;DHT22;8528;49.976;11.858;2022-12-29T19:38:57;6.30;99.90
16823;DHT22;8528;49.976;11.858;2022-12-29T19:41:24;6.40;99.90
16823;DHT22;8528;49.976;11.858;2022-12-29T19:43:51;6.40;99.90
16823;DHT22;8528;49.976;11.858;2022-12-29T19:46:18;6.40;99.90
16823;DHT22;8528;49.976;11.858;2022-12-29T19:48:45;6.40;99.90